createdAt,value
2018-12-02T00:01:44.768Z,248.43
2018-12-02T00:04:13.763Z,239.20
2018-12-02T00:06:41.747Z,233.70
2018-12-02T00:09:09.703Z,250.68
2018-12-02T00:11:37.657Z,233.07
2018-12-02T00:14:05.783Z,260.02
2018-12-02T00:16:34.726Z,252.93
2018-12-02T00:19:02.689Z,244.93
2018-12-02T00:21:30.625Z,244.07
2018-12-02T00:23:58.586Z,240.47
2018-12-02T00:26:26.515Z,244.35
2018-12-02T00:28:54.476Z,258.10
2018-12-02T00:31:22.621Z,258.20
2018-12-02T00:33:51.034Z,243.30
2018-12-02T00:36:18.985Z,260.48
2018-12-02T00:38:46.907Z,244.93
2018-12-02T00:41:14.917Z,238.15
2018-12-02T00:43:42.924Z,210.28
2018-12-02T00:46:10.921Z,218.73
2018-12-02T00:48:40.146Z,218.55
2018-12-02T00:51:08.094Z,218.95
2018-12-02T00:53:36.051Z,196.47
2018-12-02T00:56:02.695Z,186.55
2018-12-02T00:58:30.656Z,192.18
2018-12-02T01:00:58.627Z,189.45
2018-12-02T01:03:26.640Z,189.67
2018-12-02T01:05:54.574Z,180.55
2018-12-02T01:08:22.536Z,180.63
2018-12-02T01:10:50.467Z,191.07
2018-12-02T01:13:18.811Z,183.50
2018-12-02T01:15:47.093Z,182.60
2018-12-02T01:18:15.157Z,170.15
2018-12-02T01:20:43.114Z,182.85
2018-12-02T01:23:11.073Z,172.85
2018-12-02T01:25:39.064Z,175.80
2018-12-02T01:28:07.540Z,177.30
2018-12-02T01:30:35.554Z,179.40
2018-12-02T01:33:04.511Z,179.63
2018-12-02T01:35:32.495Z,169.85
2018-12-02T01:38:00.468Z,175.42
2018-12-02T01:40:28.391Z,175.55
2018-12-02T01:42:56.491Z,192.05
2018-12-02T01:45:25.890Z,166.32
2018-12-02T01:47:56.031Z,171.45
2018-12-02T01:50:25.616Z,178.78
2018-12-02T01:52:54.615Z,172.70
2018-12-02T01:55:22.589Z,171.28
2018-12-02T01:57:50.536Z,184.85
2018-12-02T02:00:22.484Z,182.17
2018-12-02T02:02:50.837Z,173.20
2018-12-02T02:05:19.631Z,176.27
2018-12-02T02:07:47.653Z,177.70
2018-12-02T02:10:17.803Z,164.65
2018-12-02T02:12:45.742Z,171.93
2018-12-02T02:15:14.760Z,154.93
2018-12-02T02:17:42.789Z,175.85
2018-12-02T02:20:12.767Z,175.32
2018-12-02T02:22:42.272Z,181.78
2018-12-02T02:25:12.016Z,178.55
2018-12-02T02:27:40.844Z,174.35
2018-12-02T02:30:13.155Z,174.87
2018-12-02T02:32:41.243Z,167.68
2018-12-02T02:35:09.839Z,162.55
2018-12-02T02:37:37.945Z,177.12
2018-12-02T02:40:11.485Z,166.57
2018-12-02T02:42:39.505Z,168.85
2018-12-02T02:45:08.439Z,169.87
2018-12-02T02:47:36.372Z,155.25
2018-12-02T02:50:09.627Z,151.45
2018-12-02T02:52:37.719Z,148.47
2018-12-02T02:55:06.014Z,158.50
2018-12-02T02:57:33.999Z,145.22
2018-12-02T03:00:02.138Z,154.87
2018-12-02T03:02:30.386Z,164.37
2018-12-02T03:04:58.693Z,160.45
2018-12-02T03:07:26.958Z,163.10
2018-12-02T03:09:55.215Z,161.73
2018-12-02T03:12:23.467Z,153.80
2018-12-02T03:14:52.220Z,153.62
2018-12-02T03:17:20.426Z,152.93
2018-12-02T03:19:48.728Z,150.78
2018-12-02T03:22:17.045Z,151.80
2018-12-02T03:24:45.300Z,149.40
2018-12-02T03:27:14.502Z,155.32
2018-12-02T03:29:42.640Z,151.00
2018-12-02T03:32:10.952Z,150.72
2018-12-02T03:34:39.207Z,143.78
2018-12-02T03:37:07.537Z,156.67
2018-12-02T03:39:35.780Z,150.35
2018-12-02T03:42:04.156Z,147.62
2018-12-02T03:44:32.325Z,154.53
2018-12-02T03:47:00.570Z,148.15
2018-12-02T03:49:28.874Z,142.60
2018-12-02T03:51:57.183Z,142.75
2018-12-02T03:54:25.405Z,141.80
2018-12-02T03:56:53.671Z,134.97
2018-12-02T03:59:21.684Z,143.02
2018-12-02T04:01:49.663Z,143.60
2018-12-02T04:04:17.727Z,150.78
2018-12-02T04:06:45.966Z,149.75
2018-12-02T04:09:14.255Z,162.75
2018-12-02T04:11:42.581Z,158.82
2018-12-02T04:14:10.781Z,173.57
2018-12-02T04:16:39.115Z,162.90
2018-12-02T04:19:07.336Z,162.03
2018-12-02T04:21:35.613Z,177.87
2018-12-02T04:24:04.054Z,166.35
2018-12-02T04:26:32.185Z,176.78
2018-12-02T04:29:00.465Z,182.05
2018-12-02T04:31:29.147Z,185.93
2018-12-02T04:33:57.436Z,178.23
2018-12-02T04:36:25.702Z,177.80
2018-12-02T04:38:53.960Z,184.55
2018-12-02T04:41:22.276Z,172.13
2018-12-02T04:43:50.492Z,175.30
2018-12-02T04:46:18.783Z,168.70
2018-12-02T04:48:47.427Z,170.17
2018-12-02T04:51:15.787Z,165.60
2018-12-02T04:53:44.030Z,171.37
2018-12-02T04:56:12.328Z,157.05
2018-12-02T04:58:40.604Z,163.03
2018-12-02T05:01:08.896Z,152.07
2018-12-02T05:03:37.160Z,156.25
2018-12-02T05:06:05.435Z,163.47
2018-12-02T05:08:33.702Z,149.80
2018-12-02T05:11:02.006Z,151.22
2018-12-02T05:13:30.244Z,141.43
2018-12-02T05:15:58.555Z,140.52
2018-12-02T05:18:26.804Z,143.07
2018-12-02T05:20:55.083Z,145.72
2018-12-02T05:23:23.371Z,140.35
2018-12-02T05:25:51.682Z,157.45
2018-12-02T05:28:20.752Z,154.45
2018-12-02T05:30:48.986Z,164.62
2018-12-02T05:33:17.259Z,170.47
2018-12-02T05:35:45.568Z,173.62
2018-12-02T05:38:13.832Z,193.65
2018-12-02T05:40:42.966Z,212.20
2018-12-02T05:43:11.234Z,213.50
2018-12-02T05:45:40.315Z,200.62
2018-12-02T05:48:09.191Z,220.70
2018-12-02T05:50:37.283Z,200.57
2018-12-02T05:53:05.553Z,179.32
2018-12-02T05:55:35.604Z,196.75
2018-12-02T05:58:05.695Z,193.28
2018-12-02T06:00:34.053Z,215.03
2018-12-02T06:03:02.291Z,182.82
2018-12-02T06:05:30.595Z,201.20
2018-12-02T06:07:58.717Z,202.05
2018-12-02T06:10:26.762Z,198.05
2018-12-02T06:12:55.411Z,196.63
2018-12-02T06:15:23.731Z,185.73
2018-12-02T06:17:52.009Z,183.62
2018-12-02T06:20:21.473Z,167.20
2018-12-02T06:22:50.658Z,168.85
2018-12-02T06:25:18.902Z,150.57
2018-12-02T06:27:47.188Z,142.93
2018-12-02T06:30:17.366Z,131.65
2018-12-02T06:32:46.394Z,131.22
2018-12-02T06:35:14.939Z,137.12
2018-12-02T06:37:44.695Z,138.20
2018-12-02T06:40:18.738Z,141.53
2018-12-02T06:42:47.060Z,137.28
2018-12-02T06:45:15.364Z,141.47
2018-12-02T06:47:43.574Z,143.25
2018-12-02T06:50:17.016Z,138.43
2018-12-02T06:52:45.426Z,138.68
2018-12-02T06:55:20.272Z,142.03
2018-12-02T06:57:56.494Z,153.40
2018-12-02T07:00:43.072Z,138.92
2018-12-02T07:03:25.951Z,141.10
2018-12-02T07:05:53.936Z,155.50
2018-12-02T07:08:22.231Z,158.82
2018-12-02T07:10:50.511Z,152.95
2018-12-02T07:13:18.750Z,143.17
2018-12-02T07:15:47.059Z,144.87
2018-12-02T07:18:19.792Z,147.75
2018-12-02T07:20:52.531Z,133.37
2018-12-02T07:23:24.126Z,124.00
2018-12-02T07:25:57.003Z,111.20
2018-12-02T07:28:25.711Z,117.93
2018-12-02T07:30:53.967Z,116.65
2018-12-02T07:33:22.406Z,117.03
2018-12-02T07:36:07.031Z,109.25
2018-12-02T07:39:32.175Z,113.45
2018-12-02T07:42:00.350Z,123.00
2018-12-02T07:44:28.627Z,117.33
2018-12-02T07:47:03.520Z,118.82
2018-12-02T07:49:32.614Z,117.45
2018-12-02T07:52:00.960Z,125.75
2018-12-02T07:54:29.376Z,119.55
2018-12-02T07:56:57.540Z,121.53
2018-12-02T08:05:31.364Z,128.77
2018-12-02T08:08:07.005Z,123.22
2018-12-02T08:10:35.359Z,122.13
2018-12-02T08:13:28.662Z,118.00
2018-12-02T08:15:58.310Z,114.37
2018-12-02T08:18:26.495Z,117.67
2018-12-02T08:20:54.716Z,112.72
2018-12-02T08:23:24.055Z,111.20
2018-12-02T08:25:53.816Z,112.10
2018-12-02T08:28:21.955Z,123.85
2018-12-02T08:30:50.812Z,122.47
2018-12-02T08:33:19.325Z,124.50
2018-12-02T08:35:47.436Z,122.30
2018-12-02T08:38:15.575Z,128.85
2018-12-02T08:40:43.886Z,130.50
2018-12-02T08:43:12.528Z,132.72
2018-12-02T08:45:40.818Z,134.67
2018-12-02T08:48:10.463Z,140.40
2018-12-02T08:50:38.877Z,139.03
2018-12-02T08:53:09.541Z,144.50
2018-12-02T08:55:38.896Z,147.30
2018-12-02T08:58:08.042Z,151.42
2018-12-02T09:00:38.708Z,159.18
2018-12-02T09:03:12.653Z,159.00
2018-12-02T09:05:41.329Z,158.32
2018-12-02T09:08:11.284Z,163.07
2018-12-02T09:10:40.636Z,167.72
2018-12-02T09:13:10.624Z,167.07
2018-12-02T09:15:40.790Z,162.10
2018-12-02T09:18:11.330Z,162.25
2018-12-02T09:20:40.615Z,163.20
2018-12-02T09:23:11.548Z,161.55
2018-12-02T09:25:41.098Z,157.32
2018-12-02T09:28:09.755Z,163.55
2018-12-02T09:30:41.729Z,168.50
2018-12-02T09:33:09.960Z,170.70
2018-12-02T09:35:41.211Z,187.92
2018-12-02T09:38:11.458Z,189.50
2018-12-02T09:40:39.798Z,203.92
2018-12-02T09:43:08.167Z,203.73
2018-12-02T09:45:36.803Z,206.63
2018-12-02T09:48:07.436Z,205.15
2018-12-02T09:50:50.460Z,211.75
2018-12-02T09:53:19.598Z,202.82
2018-12-02T09:55:49.293Z,212.35
2018-12-02T09:58:26.200Z,253.22
2018-12-02T10:00:56.982Z,247.52
2018-12-02T10:03:25.276Z,266.80
2018-12-02T10:05:53.647Z,253.90
2018-12-02T10:08:21.862Z,264.17
2018-12-02T10:10:54.063Z,280.75
2018-12-02T10:13:23.623Z,279.57
2018-12-02T10:15:53.613Z,298.05
2018-12-02T10:18:23.014Z,284.35
2018-12-02T10:20:54.157Z,269.35
2018-12-02T10:23:23.275Z,258.10
2018-12-02T10:25:51.759Z,254.00
2018-12-02T10:28:20.658Z,246.05
2018-12-02T10:30:49.187Z,250.43
2018-12-02T10:33:17.408Z,247.33
2018-12-02T10:35:46.567Z,249.58
2018-12-02T10:38:14.941Z,242.55
2018-12-02T10:40:43.554Z,230.05
2018-12-02T10:43:14.033Z,231.97
2018-12-02T10:45:48.538Z,229.03
2018-12-02T10:48:17.450Z,236.80
2018-12-02T10:50:46.278Z,236.10
2018-12-02T10:53:19.730Z,240.95
2018-12-02T10:55:54.274Z,241.65
2018-12-02T10:58:26.995Z,239.70
2018-12-02T11:01:02.052Z,247.63
2018-12-02T11:03:31.011Z,247.60
2018-12-02T11:06:02.173Z,241.95
2018-12-02T11:08:34.492Z,258.10
2018-12-02T11:11:03.226Z,268.88
2018-12-02T11:13:33.692Z,264.00
2018-12-02T11:16:02.586Z,255.98
2018-12-02T11:18:31.290Z,271.65
2018-12-02T11:21:01.098Z,248.07
2018-12-02T11:23:30.583Z,266.80
2018-12-02T11:26:00.080Z,280.73
2018-12-02T11:28:29.833Z,270.57
2018-12-02T11:30:59.519Z,254.97
2018-12-02T11:33:28.132Z,259.20
2018-12-02T11:35:56.755Z,254.68
2018-12-02T11:38:26.636Z,262.57
2018-12-02T11:40:55.019Z,248.97
2018-12-02T11:43:23.300Z,259.87
2018-12-02T11:45:52.109Z,258.85
2018-12-02T11:48:20.771Z,248.75
2018-12-02T11:50:50.757Z,249.77
2018-12-02T11:53:23.867Z,258.23
2018-12-02T11:55:53.767Z,263.85
2018-12-02T11:58:22.119Z,244.15
2018-12-02T12:00:51.186Z,250.45
2018-12-02T12:03:19.611Z,266.93
2018-12-02T12:05:52.829Z,242.30
2018-12-02T12:08:40.177Z,257.95
2018-12-02T12:11:09.718Z,263.80
2018-12-02T12:13:40.073Z,247.05
2018-12-02T12:16:09.151Z,237.63
2018-12-02T12:18:37.387Z,249.60
2018-12-02T12:21:05.733Z,273.18
2018-12-02T12:23:38.384Z,241.85
2018-12-02T12:26:12.430Z,248.87
2018-12-02T12:28:41.862Z,244.10
2018-12-02T12:34:25.395Z,226.58
2018-12-02T12:36:59.118Z,228.88
2018-12-02T12:39:35.839Z,228.70
2018-12-02T12:42:06.817Z,224.30
2018-12-02T12:44:37.772Z,226.27
2018-12-02T12:47:06.740Z,217.55
2018-12-02T12:49:36.160Z,224.55
2018-12-02T12:52:04.768Z,237.75
2018-12-02T12:54:36.724Z,232.18
2018-12-02T12:57:06.877Z,221.87
2018-12-02T12:59:36.431Z,226.05
2018-12-02T13:02:05.796Z,212.82
2018-12-02T13:04:35.987Z,205.83
2018-12-02T13:07:07.173Z,205.25
2018-12-02T13:09:37.988Z,200.00
2018-12-02T13:12:08.123Z,208.13
2018-12-02T13:14:36.941Z,190.92
2018-12-02T13:20:02.605Z,194.10
2018-12-02T13:22:36.738Z,190.40
2018-12-02T13:27:57.070Z,183.27
2018-12-02T13:30:27.577Z,178.75
2018-12-02T13:32:56.760Z,172.70
2018-12-02T13:35:34.088Z,185.95
2018-12-02T13:38:02.889Z,173.90
2018-12-02T13:40:31.365Z,163.12
2018-12-02T13:43:04.320Z,170.35
2018-12-02T13:45:33.721Z,202.93
2018-12-02T13:48:03.182Z,362.90
2018-12-02T13:50:32.186Z,395.65
2018-12-02T13:53:00.422Z,476.65
2018-12-02T13:55:31.092Z,286.50
2018-12-02T13:58:00.385Z,210.17
2018-12-02T14:00:29.590Z,186.65
2018-12-02T14:03:00.780Z,170.30
2018-12-02T14:05:32.957Z,169.15
2018-12-02T14:08:04.920Z,172.17
2018-12-02T14:10:39.333Z,182.27
2018-12-02T14:13:14.016Z,186.92
2018-12-02T14:15:53.381Z,177.95
2018-12-02T14:18:45.005Z,175.25
2018-12-02T14:21:13.570Z,177.32
2018-12-02T14:23:42.932Z,176.55
2018-12-02T14:26:14.220Z,169.82
2018-12-02T14:29:17.935Z,161.43
2018-12-02T14:31:50.847Z,203.05
2018-12-02T14:34:19.056Z,246.25
2018-12-02T14:36:47.373Z,191.57
2018-12-02T14:39:16.451Z,208.23
2018-12-02T14:41:44.764Z,197.07
2018-12-02T14:44:13.063Z,196.63
2018-12-02T14:46:41.390Z,198.72
2018-12-02T14:49:15.294Z,177.60
2018-12-02T14:51:43.542Z,185.63
2018-12-02T14:54:11.833Z,158.10
2018-12-02T14:56:40.261Z,156.72
2018-12-02T14:59:08.588Z,178.95
2018-12-02T15:01:36.765Z,275.13
2018-12-02T15:04:05.332Z,247.65
2018-12-02T15:06:33.699Z,231.17
2018-12-02T15:09:02.943Z,232.60
2018-12-02T15:11:30.971Z,230.67
2018-12-02T15:13:59.508Z,230.87
2018-12-02T15:16:27.620Z,212.75
2018-12-02T15:18:55.971Z,227.30
2018-12-02T15:21:25.016Z,359.55
2018-12-02T15:23:53.225Z,245.22
2018-12-02T15:26:21.569Z,255.43
2018-12-02T15:28:50.297Z,276.58
2018-12-02T15:31:19.082Z,262.45
2018-12-02T15:33:48.548Z,263.90
2018-12-02T15:36:16.897Z,370.75
2018-12-02T15:38:45.163Z,397.17
2018-12-02T15:41:13.977Z,398.35
2018-12-02T15:43:42.479Z,372.45
2018-12-02T15:46:10.757Z,347.27
2018-12-02T15:48:39.005Z,325.73
2018-12-02T15:51:07.717Z,314.48
2018-12-02T15:53:35.968Z,364.85
2018-12-02T15:56:06.093Z,378.55
2018-12-02T15:58:34.567Z,349.12
2018-12-02T16:01:23.091Z,308.82
2018-12-02T16:03:52.111Z,304.05
2018-12-02T16:06:21.276Z,335.57
2018-12-02T16:08:52.280Z,383.15
2018-12-02T16:11:20.469Z,383.10
2018-12-02T16:13:49.684Z,499.77
2018-12-02T16:16:17.967Z,433.40
2018-12-02T16:18:48.675Z,400.40
2018-12-02T16:21:16.750Z,407.35
2018-12-02T16:23:44.852Z,425.12
2018-12-02T16:26:14.123Z,429.23
2018-12-02T16:28:43.683Z,464.40
2018-12-02T16:31:14.682Z,493.95
2018-12-02T16:33:43.376Z,563.52
2018-12-02T16:36:17.514Z,529.80
2018-12-02T16:38:47.761Z,556.45
2018-12-02T16:41:16.051Z,552.47
2018-12-02T16:43:44.497Z,562.17
2018-12-02T16:46:13.409Z,602.23
2018-12-02T16:48:43.064Z,616.08
2018-12-02T16:51:11.380Z,621.08
2018-12-02T16:53:40.981Z,611.05
2018-12-02T16:56:10.784Z,594.97
2018-12-02T16:58:47.986Z,601.48
2018-12-02T17:01:18.919Z,604.98
2018-12-02T17:03:49.479Z,597.90
2018-12-02T17:06:18.262Z,577.25
2018-12-02T17:08:47.943Z,560.70
2018-12-02T17:11:16.142Z,559.90
2018-12-02T17:13:44.629Z,561.70
2018-12-02T17:16:16.183Z,512.30
2018-12-02T17:18:46.339Z,488.30
2018-12-02T17:21:36.048Z,433.87
2018-12-02T17:24:07.836Z,503.12
2018-12-02T17:26:40.006Z,552.90
2018-12-02T17:29:17.376Z,499.55
2018-12-02T17:31:56.624Z,509.00
2018-12-02T17:34:26.702Z,548.95
2018-12-02T17:36:59.770Z,520.80
2018-12-02T17:43:24.794Z,529.70
2018-12-02T17:46:11.406Z,492.53
2018-12-02T17:48:42.966Z,449.75
2018-12-02T17:51:12.225Z,463.85
2018-12-02T17:53:44.784Z,442.60
2018-12-02T17:56:15.429Z,471.85
2018-12-02T17:58:43.558Z,483.90
2018-12-02T18:01:11.915Z,504.90
2018-12-02T18:03:40.558Z,553.02
2018-12-02T18:06:10.055Z,549.23
2018-12-02T18:08:38.359Z,581.17
2018-12-02T18:11:10.221Z,575.80
2018-12-02T18:13:38.312Z,481.23
2018-12-02T18:16:07.205Z,480.60
2018-12-02T18:18:35.569Z,499.40
2018-12-02T18:21:04.333Z,496.65
2018-12-02T18:23:36.046Z,505.55
2018-12-02T18:26:08.108Z,513.70
2018-12-02T18:28:45.313Z,499.35
2018-12-02T18:31:14.171Z,533.45
2018-12-02T18:33:44.678Z,539.87
2018-12-02T18:36:16.893Z,542.27
2018-12-02T18:38:49.077Z,555.95
2018-12-02T18:41:41.405Z,575.72
2018-12-02T18:44:14.096Z,551.20
2018-12-02T18:46:43.362Z,548.67
2018-12-02T18:49:15.780Z,547.35
2018-12-02T18:51:45.792Z,556.78
2018-12-02T18:54:14.808Z,568.52
2018-12-02T18:56:43.398Z,574.95
2018-12-02T18:59:11.579Z,560.90
2018-12-02T19:01:39.611Z,541.30
2018-12-02T19:04:07.844Z,543.70
2018-12-02T19:06:36.349Z,543.37
2018-12-02T19:09:08.915Z,544.83
2018-12-02T19:11:37.369Z,569.20
2018-12-02T19:14:08.016Z,567.17
2018-12-02T19:16:36.170Z,515.47
2018-12-02T19:19:04.646Z,521.12
2018-12-02T19:21:33.356Z,555.60
2018-12-02T19:24:02.775Z,543.73
2018-12-02T19:26:31.639Z,549.27
2018-12-02T19:28:59.932Z,551.42
2018-12-02T19:31:28.319Z,553.80
2018-12-02T19:33:58.023Z,570.30
2018-12-02T19:36:30.130Z,590.95
2018-12-02T19:38:59.628Z,597.77
2018-12-02T19:41:28.459Z,569.97
2018-12-02T19:43:57.040Z,559.33
2018-12-02T19:46:26.569Z,546.77
2018-12-02T19:48:55.779Z,546.40
2018-12-02T19:51:23.912Z,551.60
2018-12-02T19:53:52.532Z,592.27
2018-12-02T19:56:21.215Z,608.80
2018-12-02T19:58:49.363Z,644.47
2018-12-02T20:01:17.504Z,635.05
2018-12-02T20:03:45.644Z,624.88
2018-12-02T20:06:13.844Z,604.00
2018-12-02T20:08:43.088Z,571.90
2018-12-02T20:11:11.456Z,570.20
2018-12-02T20:13:42.459Z,551.05
2018-12-02T20:16:17.117Z,528.85
2018-12-02T20:18:45.497Z,520.42
2018-12-02T20:21:14.447Z,526.77
2018-12-02T20:23:48.399Z,561.23
2018-12-02T20:26:16.498Z,545.20
2018-12-02T20:28:47.871Z,547.08
2018-12-02T20:31:22.913Z,561.75
2018-12-02T20:33:51.567Z,560.30
2018-12-02T20:36:20.913Z,564.90
2018-12-02T20:38:53.000Z,575.90
2018-12-02T20:41:23.301Z,604.05
2018-12-02T20:43:54.635Z,636.15
2018-12-02T20:46:22.978Z,625.08
2018-12-02T20:48:55.724Z,612.50
2018-12-02T20:51:25.322Z,629.35
2018-12-02T20:53:53.486Z,652.28
2018-12-02T20:56:22.650Z,675.53
2018-12-02T20:58:52.613Z,649.60
2018-12-02T21:01:21.210Z,693.35
2018-12-02T21:03:53.160Z,716.88
2018-12-02T21:09:05.951Z,694.62
2018-12-02T21:11:40.554Z,671.77
2018-12-02T21:14:07.560Z,651.25
2018-12-02T21:16:40.355Z,611.60
2018-12-02T21:19:09.968Z,630.50
2018-12-02T21:21:39.377Z,578.62
2018-12-02T21:24:07.985Z,550.55
2018-12-02T21:26:36.226Z,569.88
2018-12-02T21:29:04.960Z,566.95
2018-12-02T21:31:33.248Z,568.50
2018-12-02T21:34:01.825Z,569.45
2018-12-02T21:36:36.549Z,589.32
2018-12-02T21:39:09.410Z,615.05
2018-12-02T21:41:37.540Z,636.70
2018-12-02T21:44:06.402Z,598.45
2018-12-02T21:46:34.783Z,601.58
2018-12-02T21:49:04.200Z,662.95
2018-12-02T21:51:32.848Z,670.60
2018-12-02T21:54:01.910Z,633.05
2018-12-02T21:56:31.718Z,619.67
2018-12-02T21:58:59.877Z,679.92
2018-12-02T22:01:28.180Z,677.30
2018-12-02T22:03:57.608Z,589.23
2018-12-02T22:06:26.733Z,603.40
2018-12-02T22:08:56.048Z,621.00
2018-12-02T22:11:24.391Z,608.35
2018-12-02T22:13:52.737Z,574.08
2018-12-02T22:16:21.176Z,554.95
2018-12-02T22:18:49.576Z,551.95
2018-12-02T22:21:19.012Z,571.60
2018-12-02T22:23:47.038Z,563.67
2018-12-02T22:26:15.396Z,567.48
2018-12-02T22:28:43.627Z,551.42
2018-12-02T22:31:11.867Z,513.85
2018-12-02T22:33:40.152Z,489.65
2018-12-02T22:36:14.052Z,471.10
2018-12-02T22:38:37.140Z,428.40
2018-12-02T22:41:05.862Z,417.40
2018-12-02T22:43:34.907Z,388.05
2018-12-02T22:46:03.252Z,369.05
2018-12-02T22:48:32.722Z,357.25
2018-12-02T22:51:02.223Z,355.60
2018-12-02T22:53:31.293Z,337.32
2018-12-02T22:55:59.727Z,309.98
2018-12-02T22:58:28.164Z,331.13
2018-12-02T23:01:02.358Z,325.98
2018-12-02T23:03:31.650Z,329.02
2018-12-02T23:06:02.118Z,338.80
2018-12-02T23:08:30.472Z,328.45
2018-12-02T23:10:58.669Z,317.48
2018-12-02T23:13:26.966Z,318.02
2018-12-02T23:15:55.240Z,304.75
2018-12-02T23:18:23.887Z,328.67
2018-12-02T23:20:52.136Z,313.80
2018-12-02T23:23:21.332Z,321.43
2018-12-02T23:25:49.548Z,312.95
2018-12-02T23:28:17.836Z,310.40
2018-12-02T23:30:46.047Z,309.67
2018-12-02T23:33:15.284Z,291.00
2018-12-02T23:35:45.482Z,311.92
2018-12-02T23:38:14.240Z,310.55
2018-12-02T23:40:42.668Z,314.02
2018-12-02T23:43:12.690Z,323.27
2018-12-02T23:45:41.370Z,316.30
2018-12-02T23:48:10.430Z,319.25
2018-12-02T23:50:42.024Z,314.95
2018-12-02T23:53:10.383Z,338.27
2018-12-02T23:55:38.809Z,316.60
2018-12-02T23:58:06.949Z,326.32
